createdAt,value
2023-05-21T10:45:16.408Z,19.60
2023-05-21T10:46:16.558Z,21.40
2023-05-21T10:47:16.564Z,20.70
2023-05-21T10:48:16.626Z,20.70
2023-05-21T10:49:18.225Z,20.30
2023-05-21T10:50:18.072Z,20.30
2023-05-21T10:51:18.126Z,19.90
2023-05-21T10:52:18.037Z,20.40
2023-05-21T10:53:18.030Z,20.30
2023-05-21T10:54:17.816Z,20.40
2023-05-21T10:55:17.651Z,19.30
2023-05-21T10:56:17.492Z,19.10
2023-05-21T10:57:17.623Z,18.60
2023-05-21T10:58:17.318Z,20.40
2023-05-21T10:59:17.369Z,19.30
2023-05-21T11:00:17.892Z,19.30
2023-05-21T11:01:17.741Z,19.20
2023-05-21T11:02:18.032Z,18.00
2023-05-21T11:03:17.829Z,17.90
2023-05-21T11:04:17.969Z,18.00
2023-05-21T11:05:18.069Z,17.40
2023-05-21T11:06:17.712Z,18.10
2023-05-21T11:07:17.651Z,17.10
2023-05-21T11:08:17.854Z,17.90
2023-05-21T11:09:17.624Z,18.20
2023-05-21T11:10:17.924Z,16.30
2023-05-21T11:11:17.635Z,17.10
2023-05-21T11:12:17.696Z,18.20
2023-05-21T11:13:17.928Z,17.00
2023-05-21T11:14:19.215Z,16.60
2023-05-21T11:15:17.697Z,17.60
2023-05-21T11:16:17.759Z,16.70
2023-05-21T11:17:17.954Z,16.60
2023-05-21T11:18:17.467Z,16.00
2023-05-21T11:19:17.320Z,15.90
2023-05-21T11:20:17.870Z,16.90
2023-05-21T11:21:17.224Z,17.80
2023-05-21T11:22:17.396Z,16.90
2023-05-21T11:23:17.972Z,17.40
2023-05-21T11:24:17.466Z,17.30
2023-05-21T11:25:17.475Z,17.40
2023-05-21T11:26:17.427Z,15.80
2023-05-21T11:27:17.342Z,17.80
2023-05-21T11:28:17.632Z,17.70
2023-05-21T11:29:17.808Z,18.00
2023-05-21T11:30:17.722Z,18.50
2023-05-21T11:31:17.853Z,16.00
2023-05-21T11:32:17.758Z,15.90
2023-05-21T11:33:17.464Z,15.20
2023-05-21T11:34:17.964Z,15.20
2023-05-21T11:35:17.401Z,15.50
2023-05-21T11:36:17.181Z,15.70
2023-05-21T11:37:17.143Z,15.60
2023-05-21T11:38:17.206Z,15.30
2023-05-21T11:39:17.081Z,15.40
2023-05-21T11:40:17.372Z,14.90
2023-05-21T11:41:17.485Z,15.80
2023-05-21T11:42:17.880Z,15.80
2023-05-21T11:43:17.322Z,17.10
2023-05-21T11:44:17.715Z,16.10
2023-05-21T11:45:17.775Z,15.70
2023-05-21T11:46:17.284Z,15.30
2023-05-21T11:47:17.902Z,15.50
2023-05-21T11:48:17.457Z,15.50
2023-05-21T11:49:17.483Z,15.50
2023-05-21T11:50:17.427Z,15.60
2023-05-21T11:51:17.279Z,14.60
2023-05-21T11:52:17.104Z,14.40
2023-05-21T11:53:17.724Z,14.00
2023-05-21T11:54:17.437Z,15.30
2023-05-21T11:55:17.025Z,15.40
2023-05-21T11:56:17.278Z,15.80
2023-05-21T11:57:17.191Z,14.90
2023-05-21T11:58:17.310Z,15.30
2023-05-21T11:59:18.672Z,15.10
2023-05-21T12:00:17.878Z,15.20
2023-05-21T12:01:17.120Z,14.60
2023-05-21T12:02:17.044Z,14.70
2023-05-21T12:03:17.042Z,14.80
2023-05-21T12:04:17.013Z,14.40
2023-05-21T12:05:16.847Z,14.60
2023-05-21T12:06:17.354Z,14.10
2023-05-21T12:07:16.942Z,14.90
2023-05-21T12:08:17.078Z,14.30
2023-05-21T12:09:16.776Z,13.70
2023-05-21T12:10:17.301Z,13.90
2023-05-21T12:11:17.199Z,14.20
2023-05-21T12:12:17.034Z,13.60
2023-05-21T12:13:17.250Z,13.30
2023-05-21T12:14:17.371Z,14.20
2023-05-21T12:15:16.904Z,14.30
2023-05-21T12:16:17.211Z,14.30
2023-05-21T12:17:16.755Z,14.70
2023-05-21T12:18:17.321Z,13.90
2023-05-21T12:19:16.726Z,14.70
2023-05-21T12:20:16.720Z,13.90
2023-05-21T12:21:16.934Z,14.10
2023-05-21T12:22:17.077Z,14.20
2023-05-21T12:23:16.816Z,14.00
2023-05-21T12:24:17.298Z,14.60
2023-05-21T12:25:17.306Z,14.00
2023-05-21T12:26:17.077Z,13.60
2023-05-21T12:27:16.769Z,13.10
2023-05-21T12:28:17.354Z,13.80
2023-05-21T12:29:16.859Z,13.30
2023-05-21T12:30:16.912Z,14.10
2023-05-21T12:31:17.421Z,12.80
2023-05-21T12:32:16.886Z,14.10
2023-05-21T12:33:16.969Z,12.90
2023-05-21T12:34:16.939Z,13.60
2023-05-21T12:35:17.693Z,14.00
2023-05-21T12:36:17.422Z,13.00
2023-05-21T12:37:17.125Z,13.00
2023-05-21T12:38:18.080Z,13.10
2023-05-21T12:39:17.034Z,13.10
2023-05-21T12:40:17.239Z,13.50
2023-05-21T12:41:17.079Z,13.10
2023-05-21T12:42:17.380Z,12.90
2023-05-21T12:43:17.197Z,13.70
2023-05-21T12:44:17.075Z,13.00
2023-05-21T12:45:17.125Z,13.30
2023-05-21T12:46:17.030Z,13.00
2023-05-21T12:47:16.702Z,13.90
2023-05-21T12:48:16.762Z,13.20
2023-05-21T12:49:16.626Z,13.40
2023-05-21T12:50:17.260Z,13.30
2023-05-21T12:51:17.568Z,13.70
2023-05-21T12:52:16.989Z,13.80
2023-05-21T12:53:17.047Z,13.90
2023-05-21T12:54:16.838Z,13.80
2023-05-21T12:55:17.200Z,13.20
2023-05-21T12:56:16.978Z,14.00
2023-05-21T12:57:17.201Z,14.20
2023-05-21T12:58:16.855Z,14.10
2023-05-21T12:59:17.453Z,13.70
2023-05-21T13:00:16.746Z,13.90
2023-05-21T13:01:17.040Z,14.00
2023-05-21T13:02:17.295Z,13.70
2023-05-21T13:03:16.673Z,14.50
2023-05-21T13:04:17.064Z,13.60
2023-05-21T13:05:16.897Z,13.90
2023-05-21T13:06:17.100Z,13.60
2023-05-21T13:07:17.190Z,14.30
2023-05-21T13:08:17.065Z,13.00
2023-05-21T13:09:17.025Z,13.50
2023-05-21T13:10:17.132Z,13.40
2023-05-21T13:11:18.134Z,13.30
2023-05-21T13:12:17.212Z,13.80
2023-05-21T13:13:16.996Z,13.00
2023-05-21T13:14:16.791Z,12.90
2023-05-21T13:15:16.813Z,12.80
2023-05-21T13:16:17.038Z,12.70
2023-05-21T13:17:17.432Z,14.00
2023-05-21T13:18:17.000Z,13.20
2023-05-21T13:19:17.130Z,13.40
2023-05-21T13:20:16.718Z,13.20
2023-05-21T13:21:16.934Z,12.90
2023-05-21T13:22:16.972Z,12.70
2023-05-21T13:23:17.384Z,13.10
2023-05-21T13:24:16.980Z,13.50
2023-05-21T13:25:16.800Z,13.00
2023-05-21T13:26:16.667Z,13.10
2023-05-21T13:27:16.874Z,13.10
2023-05-21T13:28:18.024Z,13.00
2023-05-21T13:29:16.649Z,13.50
2023-05-21T13:30:16.756Z,13.90
2023-05-21T13:31:16.255Z,13.10
2023-05-21T13:32:16.774Z,13.40
2023-05-21T13:33:17.131Z,13.80
2023-05-21T13:34:16.641Z,13.10
2023-05-21T13:35:17.277Z,12.50
2023-05-21T13:36:16.777Z,13.40
2023-05-21T13:37:17.092Z,12.90
2023-05-21T13:38:16.687Z,13.00
2023-05-21T13:39:16.693Z,13.70
2023-05-21T13:40:16.582Z,12.90
2023-05-21T13:41:16.588Z,13.80
2023-05-21T13:42:16.887Z,12.20
2023-05-21T13:43:16.624Z,12.80
2023-05-21T13:44:16.911Z,13.20
2023-05-21T13:45:16.637Z,13.10
2023-05-21T13:46:16.743Z,12.80
2023-05-21T13:47:16.606Z,13.30
2023-05-21T13:48:16.727Z,12.30
2023-05-21T13:49:16.678Z,12.70
2023-05-21T13:50:16.979Z,12.50
2023-05-21T13:51:30.788Z,12.10
2023-05-21T13:52:18.038Z,11.80
2023-05-21T13:53:16.327Z,12.40
2023-05-21T13:54:16.661Z,12.20
2023-05-21T13:55:16.268Z,12.40
2023-05-21T13:56:16.724Z,12.20
2023-05-21T13:57:16.697Z,11.60
2023-05-21T13:58:16.396Z,11.80
2023-05-21T13:59:16.623Z,11.40
2023-05-21T14:00:16.594Z,12.10
2023-05-21T14:01:16.541Z,11.90
2023-05-21T14:02:16.666Z,10.60
2023-05-21T14:03:16.542Z,11.20
2023-05-21T14:04:16.776Z,11.20
2023-05-21T14:05:16.374Z,10.90
2023-05-21T14:06:16.378Z,11.40
2023-05-21T14:07:16.362Z,11.20
2023-05-21T14:08:16.588Z,11.00
2023-05-21T14:09:16.466Z,11.20
2023-05-21T14:10:16.501Z,11.70
2023-05-21T14:11:16.674Z,11.20
2023-05-21T14:12:16.421Z,11.30
2023-05-21T14:13:20.021Z,10.80
2023-05-21T14:14:17.062Z,10.90
2023-05-21T14:15:16.625Z,11.20
2023-05-21T14:16:16.785Z,11.10
2023-05-21T14:17:17.701Z,11.40
2023-05-21T14:18:16.438Z,10.80
2023-05-21T14:19:16.574Z,12.10
2023-05-21T14:20:17.669Z,11.50
2023-05-21T14:21:16.668Z,11.40
2023-05-21T14:22:16.370Z,11.80
2023-05-21T14:23:16.318Z,12.30
2023-05-21T14:24:16.379Z,12.40
2023-05-21T14:25:16.360Z,12.40
2023-05-21T14:26:16.457Z,12.80
2023-05-21T14:27:17.854Z,12.80
2023-05-21T14:28:16.663Z,13.30
2023-05-21T14:29:16.474Z,14.10
2023-05-21T14:30:16.570Z,14.10
2023-05-21T14:31:16.543Z,13.40
2023-05-21T14:32:16.889Z,13.20
2023-05-21T14:33:16.755Z,13.00
2023-05-21T14:34:16.388Z,12.50
2023-05-21T14:35:16.439Z,12.30
2023-05-21T14:36:16.430Z,12.20
2023-05-21T14:37:16.318Z,12.80
2023-05-21T14:38:15.996Z,13.50
2023-05-21T14:39:16.231Z,13.30
2023-05-21T14:40:16.074Z,12.80
2023-05-21T14:41:16.373Z,13.20
2023-05-21T14:42:17.009Z,12.40
2023-05-21T14:43:16.147Z,12.80
2023-05-21T14:44:16.258Z,13.50
2023-05-21T14:45:18.660Z,14.80
2023-05-21T14:46:17.201Z,14.60
2023-05-21T14:47:16.571Z,13.60
2023-05-21T14:48:16.698Z,13.00
2023-05-21T14:49:16.286Z,13.10
2023-05-21T14:50:16.439Z,13.90
2023-05-21T14:51:16.452Z,12.80
2023-05-21T14:52:16.359Z,13.20
2023-05-21T14:53:18.436Z,12.60
2023-05-21T14:54:16.225Z,13.30
2023-05-21T14:55:17.295Z,13.00
2023-05-21T14:56:17.293Z,13.60
2023-05-21T14:57:16.241Z,12.70
2023-05-21T14:58:16.636Z,14.00
2023-05-21T14:59:16.236Z,13.80
2023-05-21T15:00:16.193Z,14.10
2023-05-21T15:01:16.152Z,13.50
2023-05-21T15:02:16.219Z,13.80
2023-05-21T15:03:16.325Z,13.80
2023-05-21T15:04:16.211Z,12.60
2023-05-21T15:05:16.386Z,14.00
2023-05-21T15:06:17.270Z,13.30
2023-05-21T15:07:16.110Z,14.00
2023-05-21T15:08:16.093Z,13.50
2023-05-21T15:09:16.448Z,13.40
2023-05-21T15:10:18.578Z,13.80
2023-05-21T15:11:16.168Z,14.00
2023-05-21T15:12:16.342Z,13.50
2023-05-21T15:13:16.266Z,14.40
2023-05-21T15:14:16.676Z,15.50
2023-05-21T15:15:16.276Z,13.70
2023-05-21T15:16:17.358Z,15.10
2023-05-21T15:17:16.243Z,15.50
2023-05-21T15:18:15.886Z,15.60
2023-05-21T15:19:15.999Z,14.90
2023-05-21T15:20:16.701Z,15.60
2023-05-21T15:21:16.059Z,15.10
2023-05-21T15:22:16.128Z,15.20
2023-05-21T15:23:17.725Z,15.10
2023-05-21T15:24:17.113Z,15.60
2023-05-21T15:25:16.397Z,15.00
2023-05-21T15:26:16.396Z,15.80
2023-05-21T15:27:15.883Z,16.00
2023-05-21T15:28:15.967Z,15.90
2023-05-21T15:29:17.140Z,15.70
2023-05-21T15:30:16.017Z,15.40
2023-05-21T15:31:16.154Z,16.00
2023-05-21T15:32:15.809Z,15.50
2023-05-21T15:33:15.957Z,15.60
2023-05-21T15:34:16.185Z,15.00
2023-05-21T15:35:15.873Z,15.60
2023-05-21T15:36:15.850Z,15.50
2023-05-21T15:37:15.664Z,16.70
2023-05-21T15:38:15.608Z,15.60
2023-05-21T15:39:15.774Z,16.60
2023-05-21T15:40:15.734Z,16.20
2023-05-21T15:41:15.855Z,16.00
2023-05-21T15:42:15.792Z,17.40
2023-05-21T15:43:15.648Z,16.90
2023-05-21T15:44:15.850Z,17.70
2023-05-21T15:45:15.888Z,17.80
2023-05-21T15:46:16.256Z,17.20
2023-05-21T15:47:15.896Z,17.90
2023-05-21T15:48:15.878Z,17.30
2023-05-21T15:49:16.750Z,17.50
2023-05-21T15:50:15.878Z,18.60
2023-05-21T15:51:15.824Z,18.00
2023-05-21T15:52:17.168Z,16.80
2023-05-21T15:53:15.874Z,17.40
2023-05-21T15:54:15.890Z,17.60
2023-05-21T15:55:15.851Z,16.40
2023-05-21T15:56:15.921Z,16.80
2023-05-21T15:57:16.083Z,17.70
2023-05-21T15:58:15.657Z,19.90
2023-05-21T15:59:15.773Z,20.70
2023-05-21T16:00:15.678Z,19.40
2023-05-21T16:01:15.902Z,18.30
2023-05-21T16:02:16.497Z,19.60
2023-05-21T16:03:15.794Z,23.70
2023-05-21T16:04:15.753Z,26.30
2023-05-21T16:05:15.593Z,27.10
2023-05-21T16:06:15.212Z,26.40
2023-05-21T16:07:15.721Z,25.90
2023-05-21T16:08:15.900Z,26.10
2023-05-21T16:09:15.704Z,25.60
2023-05-21T16:10:15.783Z,33.30
2023-05-21T16:11:15.857Z,35.60
2023-05-21T16:12:15.879Z,36.00
2023-05-21T16:13:15.974Z,45.40
2023-05-21T16:14:15.728Z,51.40
2023-05-21T16:15:15.804Z,52.20
2023-05-21T16:16:15.603Z,52.50
2023-05-21T16:17:15.646Z,45.20
2023-05-21T16:18:16.416Z,36.70
2023-05-21T16:19:15.687Z,41.00
2023-05-21T16:20:15.649Z,63.80
2023-05-21T16:21:15.559Z,41.00
2023-05-21T16:22:15.580Z,45.70
2023-05-21T16:23:15.487Z,44.00
2023-05-21T16:24:15.687Z,43.20
2023-05-21T16:25:15.446Z,45.20
2023-05-21T16:26:15.646Z,69.80
2023-05-21T16:27:15.642Z,68.90
2023-05-21T16:28:15.748Z,82.60
2023-05-21T16:29:15.892Z,62.30
2023-05-21T16:30:15.589Z,103.40
2023-05-21T16:31:15.499Z,89.70
2023-05-21T16:32:15.985Z,53.30
2023-05-21T16:33:15.656Z,91.00
2023-05-21T16:34:15.793Z,65.80
2023-05-21T16:35:15.592Z,77.90
2023-05-21T16:36:17.475Z,76.60
2023-05-21T16:37:15.537Z,32.70
2023-05-21T16:38:15.448Z,35.80
2023-05-21T16:39:15.540Z,65.70
2023-05-21T16:40:15.712Z,102.00
2023-05-21T16:41:15.345Z,63.90
2023-05-21T16:42:15.528Z,40.10
2023-05-21T16:43:15.567Z,44.10
2023-05-21T16:44:15.751Z,49.20
2023-05-21T16:45:15.642Z,32.10
2023-05-21T16:46:16.941Z,31.10
2023-05-21T16:47:15.565Z,62.10
2023-05-21T16:48:15.566Z,41.70
2023-05-21T16:49:15.615Z,32.70
2023-05-21T16:50:15.960Z,34.30
2023-05-21T16:51:15.542Z,34.20
2023-05-21T16:52:15.548Z,38.60
2023-05-21T16:53:15.541Z,40.20
2023-05-21T16:54:15.486Z,33.20
2023-05-21T16:55:15.401Z,36.80
2023-05-21T16:56:16.038Z,39.20
2023-05-21T16:57:15.299Z,49.50
2023-05-21T16:58:15.652Z,61.80
2023-05-21T16:59:15.491Z,51.00
2023-05-21T17:00:15.456Z,36.40
2023-05-21T17:01:15.772Z,29.40
2023-05-21T17:02:15.382Z,43.50
2023-05-21T17:03:15.461Z,65.90
2023-05-21T17:04:16.488Z,64.70
2023-05-21T17:05:15.286Z,34.40
2023-05-21T17:06:16.002Z,37.00
2023-05-21T17:07:15.324Z,37.30
2023-05-21T17:08:15.432Z,38.30
2023-05-21T17:09:16.490Z,35.40
2023-05-21T17:10:15.436Z,32.40
2023-05-21T17:11:15.689Z,28.40
2023-05-21T17:12:15.900Z,33.80
2023-05-21T17:13:22.170Z,32.90
2023-05-21T17:14:32.682Z,36.80
2023-05-21T17:15:17.247Z,31.60
2023-05-21T17:16:15.311Z,27.80
2023-05-21T17:17:15.531Z,26.00
2023-05-21T17:18:15.341Z,25.80
2023-05-21T17:19:15.375Z,26.60
2023-05-21T17:20:15.328Z,34.80
2023-05-21T17:21:15.253Z,27.20
2023-05-21T17:22:15.426Z,28.40
2023-05-21T17:23:15.411Z,24.50
2023-05-21T17:24:15.292Z,22.90
2023-05-21T17:25:15.232Z,23.00
2023-05-21T17:26:15.172Z,23.30
2023-05-21T17:27:15.313Z,22.70
2023-05-21T17:28:15.062Z,22.60
2023-05-21T17:29:15.086Z,25.80
2023-05-21T17:30:15.309Z,22.90
2023-05-21T17:31:15.020Z,21.40
2023-05-21T17:32:14.804Z,22.00
2023-05-21T17:33:15.422Z,22.10
2023-05-21T17:34:14.797Z,23.60
2023-05-21T17:35:14.726Z,22.70
2023-05-21T17:36:15.165Z,22.00
2023-05-21T17:37:15.359Z,22.40
2023-05-21T17:38:15.381Z,23.10
2023-05-21T17:39:15.214Z,19.10
2023-05-21T17:40:15.149Z,31.60
2023-05-21T17:41:15.186Z,29.30
2023-05-21T17:42:14.868Z,62.50
2023-05-21T17:43:14.731Z,27.80
2023-05-21T17:44:15.285Z,61.70
2023-05-21T17:45:15.933Z,69.00
2023-05-21T17:46:14.974Z,80.20
2023-05-21T17:47:15.192Z,67.10
2023-05-21T17:48:15.075Z,66.40
2023-05-21T17:49:15.243Z,65.10
2023-05-21T17:50:14.939Z,46.40
2023-05-21T17:51:15.627Z,48.30
2023-05-21T17:52:15.266Z,44.70
2023-05-21T17:53:15.064Z,104.20
2023-05-21T17:54:15.236Z,141.70
2023-05-21T17:55:15.158Z,107.20
2023-05-21T17:56:15.083Z,82.30
2023-05-21T17:57:15.134Z,61.40
2023-05-21T17:58:15.049Z,72.50
2023-05-21T17:59:15.005Z,86.60
2023-05-21T18:00:15.106Z,48.40
2023-05-21T18:01:14.989Z,57.80
2023-05-21T18:02:15.002Z,64.70
2023-05-21T18:03:15.758Z,59.60
2023-05-21T18:04:14.974Z,192.10
2023-05-21T18:05:15.229Z,198.30
2023-05-21T18:06:15.053Z,254.00
2023-05-21T18:07:14.932Z,263.20
2023-05-21T18:08:15.029Z,283.60
2023-05-21T18:09:15.021Z,231.60
2023-05-21T18:10:15.400Z,217.80
2023-05-21T18:11:14.994Z,358.10
2023-05-21T18:12:14.800Z,296.40
2023-05-21T18:13:14.790Z,260.20
2023-05-21T18:14:14.946Z,313.90
2023-05-21T18:15:14.903Z,246.80
2023-05-21T18:16:15.164Z,284.10
2023-05-21T18:17:14.889Z,336.60
2023-05-21T18:18:14.852Z,387.40
2023-05-21T18:19:14.980Z,272.20
2023-05-21T18:20:15.174Z,311.10
2023-05-21T18:21:15.152Z,370.70
2023-05-21T18:22:15.040Z,305.60
2023-05-21T18:23:15.865Z,211.90
2023-05-21T18:24:14.894Z,303.70
2023-05-21T18:25:14.929Z,233.50
2023-05-21T18:26:14.894Z,248.10
2023-05-21T18:27:14.763Z,350.20
2023-05-21T18:28:14.717Z,421.00
2023-05-21T18:29:14.801Z,490.00
2023-05-21T18:30:14.780Z,480.90
2023-05-21T18:31:14.805Z,504.60
2023-05-21T18:32:15.343Z,485.70
2023-05-21T18:33:15.894Z,383.00
2023-05-21T18:34:16.180Z,353.60
2023-05-21T18:35:16.682Z,379.40
2023-05-21T18:36:15.788Z,391.50
2023-05-21T18:37:15.045Z,353.40
2023-05-21T18:38:14.735Z,387.10
2023-05-21T18:39:15.055Z,343.60
2023-05-21T18:40:15.857Z,269.10
2023-05-21T18:41:14.702Z,296.50
2023-05-21T18:42:15.044Z,393.80
2023-05-21T18:43:14.598Z,343.80
2023-05-21T18:44:14.635Z,427.70
2023-05-21T18:45:14.643Z,380.60
2023-05-21T18:46:14.691Z,441.20
2023-05-21T18:47:14.807Z,381.40
2023-05-21T18:48:15.152Z,414.80
2023-05-21T18:49:14.788Z,479.50
2023-05-21T18:50:15.864Z,596.80
2023-05-21T18:51:14.721Z,588.00
2023-05-21T18:52:14.751Z,556.30
2023-05-21T18:53:16.103Z,549.30
2023-05-21T18:54:14.882Z,545.40
2023-05-21T18:55:14.668Z,492.10
2023-05-21T18:56:14.596Z,503.10
2023-05-21T18:57:14.800Z,383.50
2023-05-21T18:58:14.919Z,366.90
2023-05-21T18:59:14.604Z,340.40
2023-05-21T19:00:15.981Z,343.40
2023-05-21T19:01:14.755Z,369.30
2023-05-21T19:02:14.774Z,392.20
2023-05-21T19:03:14.803Z,375.40
2023-05-21T19:04:14.989Z,412.00
2023-05-21T19:05:14.745Z,373.90
2023-05-21T19:06:14.766Z,373.60
2023-05-21T19:07:14.551Z,355.50
2023-05-21T19:08:14.395Z,376.20
2023-05-21T19:09:14.775Z,429.60
2023-05-21T19:10:14.584Z,423.40
2023-05-21T19:11:14.611Z,331.20
2023-05-21T19:12:14.592Z,338.00
2023-05-21T19:13:15.787Z,333.50
2023-05-21T19:14:15.248Z,325.50
2023-05-21T19:15:14.523Z,299.30
2023-05-21T19:16:14.351Z,293.50
2023-05-21T19:17:15.433Z,300.10
2023-05-21T19:18:14.436Z,371.50
2023-05-21T19:19:14.472Z,491.00
2023-05-21T19:20:15.715Z,417.50
2023-05-21T19:21:15.434Z,490.20
2023-05-21T19:22:14.475Z,484.30
2023-05-21T19:23:14.395Z,320.70
2023-05-21T19:24:14.467Z,327.40
2023-05-21T19:25:14.793Z,342.20
2023-05-21T19:26:15.529Z,276.20
2023-05-21T19:27:15.435Z,361.60
2023-05-21T19:28:14.745Z,288.70
2023-05-21T19:29:14.515Z,234.20
2023-05-21T19:30:14.697Z,222.80
2023-05-21T19:31:14.314Z,195.70
2023-05-21T19:32:15.378Z,232.60
2023-05-21T19:33:14.508Z,225.50
2023-05-21T19:34:14.272Z,210.40
2023-05-21T19:35:14.166Z,187.00
2023-05-21T19:36:14.631Z,200.70
2023-05-21T19:37:14.365Z,201.40
2023-05-21T19:38:14.371Z,207.60
2023-05-21T19:39:14.362Z,235.70
2023-05-21T19:40:14.402Z,252.60
2023-05-21T19:41:14.561Z,242.00
2023-05-21T19:42:14.687Z,252.90
2023-05-21T19:43:14.297Z,256.00
2023-05-21T19:44:15.345Z,252.30
2023-05-21T19:45:15.338Z,268.80
2023-05-21T19:46:17.218Z,256.30
2023-05-21T19:47:15.291Z,248.20
2023-05-21T19:48:14.246Z,220.50
2023-05-21T19:49:14.242Z,234.90
2023-05-21T19:50:14.245Z,233.70
2023-05-21T19:51:14.049Z,215.80
2023-05-21T19:52:15.547Z,231.20
2023-05-21T19:53:14.249Z,270.40
2023-05-21T19:54:15.234Z,192.20
2023-05-21T19:55:14.447Z,226.90
2023-05-21T19:56:14.446Z,296.00
2023-05-21T19:57:14.423Z,242.70
2023-05-21T19:58:14.273Z,226.50
2023-05-21T19:59:14.086Z,291.60
2023-05-21T20:00:14.154Z,408.30
2023-05-21T20:01:14.101Z,345.60
2023-05-21T20:02:14.321Z,191.10
2023-05-21T20:03:14.083Z,208.60
2023-05-21T20:04:14.124Z,221.20
2023-05-21T20:05:14.048Z,223.10
2023-05-21T20:06:14.050Z,244.40
2023-05-21T20:07:14.018Z,297.10
2023-05-21T20:08:14.291Z,289.50
2023-05-21T20:09:14.096Z,353.40
2023-05-21T20:10:14.441Z,215.70
2023-05-21T20:11:14.129Z,216.70
2023-05-21T20:12:14.101Z,202.70
2023-05-21T20:13:14.977Z,213.20
2023-05-21T20:14:14.066Z,207.70
2023-05-21T20:15:14.108Z,216.80
2023-05-21T20:16:14.089Z,207.70
2023-05-21T20:17:14.054Z,207.10
2023-05-21T20:18:14.381Z,227.90
2023-05-21T20:19:14.005Z,243.00
2023-05-21T20:20:13.968Z,246.70
2023-05-21T20:21:14.042Z,244.40
2023-05-21T20:22:13.961Z,270.00
2023-05-21T20:23:14.249Z,274.50
2023-05-21T20:24:14.447Z,315.80
2023-05-21T20:25:14.040Z,377.70
2023-05-21T20:26:14.986Z,288.00
2023-05-21T20:27:13.857Z,363.00
2023-05-21T20:28:13.953Z,389.20
2023-05-21T20:29:14.257Z,396.90
2023-05-21T20:30:13.971Z,545.00
2023-05-21T20:31:13.883Z,598.50
2023-05-21T20:32:13.839Z,435.50
2023-05-21T20:33:13.939Z,435.10
2023-05-21T20:34:14.147Z,366.40
2023-05-21T20:35:14.005Z,367.40
2023-05-21T20:36:13.859Z,606.40
2023-05-21T20:37:13.733Z,426.20
2023-05-21T20:38:13.832Z,515.70
2023-05-21T20:39:13.898Z,387.30
2023-05-21T20:40:14.975Z,561.40
2023-05-21T20:41:14.892Z,403.30
2023-05-21T20:42:13.663Z,404.40
2023-05-21T20:43:13.863Z,496.60
2023-05-21T20:44:13.812Z,333.30
2023-05-21T20:45:14.146Z,276.00
2023-05-21T20:46:13.882Z,229.50
2023-05-21T20:47:14.069Z,245.10
2023-05-21T20:48:13.881Z,246.50
2023-05-21T20:49:13.724Z,254.90
2023-05-21T20:50:13.920Z,245.70
2023-05-21T20:51:13.621Z,173.70
2023-05-21T20:52:13.744Z,227.60
2023-05-21T20:53:13.676Z,278.50
2023-05-21T20:54:13.837Z,388.00
2023-05-21T20:55:13.826Z,391.90
2023-05-21T20:56:13.972Z,374.90
2023-05-21T20:57:13.892Z,267.90
2023-05-21T20:58:14.574Z,238.90
2023-05-21T20:59:14.033Z,255.00
2023-05-21T21:00:13.821Z,230.00
2023-05-21T21:01:14.075Z,328.70
2023-05-21T21:02:13.622Z,415.50
2023-05-21T21:03:14.826Z,388.00
2023-05-21T21:04:13.600Z,389.90
2023-05-21T21:05:13.909Z,365.50
2023-05-21T21:06:13.779Z,318.90
2023-05-21T21:07:13.627Z,350.20
2023-05-21T21:08:13.601Z,497.10
2023-05-21T21:09:13.573Z,512.60
2023-05-21T21:10:13.458Z,739.20
2023-05-21T21:11:13.465Z,786.20
2023-05-21T21:12:25.417Z,456.10
2023-05-21T21:13:15.504Z,568.20
2023-05-21T21:14:13.253Z,608.10
2023-05-21T21:15:13.557Z,549.20
2023-05-21T21:16:14.056Z,579.50
2023-05-21T21:17:14.868Z,530.00
2023-05-21T21:18:14.645Z,584.30
2023-05-21T21:19:13.542Z,525.80
2023-05-21T21:20:13.563Z,550.40
2023-05-21T21:21:13.613Z,548.50
2023-05-21T21:22:14.113Z,532.60
2023-05-21T21:23:13.596Z,527.60
2023-05-21T21:24:13.605Z,599.20
2023-05-21T21:25:13.371Z,610.60
2023-05-21T21:26:13.468Z,577.80
2023-05-21T21:27:13.373Z,634.40
2023-05-21T21:28:13.615Z,536.00
2023-05-21T21:29:13.480Z,585.10
2023-05-21T21:30:13.426Z,651.50
2023-05-21T21:31:13.444Z,508.40
2023-05-21T21:32:13.541Z,594.00
2023-05-21T21:33:13.714Z,579.40
2023-05-21T21:34:13.453Z,555.80
2023-05-21T21:35:13.141Z,558.50
2023-05-21T21:36:13.395Z,625.20
2023-05-21T21:37:13.701Z,661.40
2023-05-21T21:38:13.615Z,690.50
2023-05-21T21:39:13.147Z,586.30
2023-05-21T21:40:13.123Z,711.40
2023-05-21T21:41:13.230Z,588.70
2023-05-21T21:42:13.047Z,580.70
2023-05-21T21:43:13.233Z,496.80
2023-05-21T21:44:13.559Z,616.10
2023-05-21T21:45:13.187Z,567.40
2023-05-21T21:46:14.492Z,633.50
2023-05-21T21:47:13.334Z,658.20
2023-05-21T21:48:13.208Z,549.50
2023-05-21T21:49:13.004Z,614.20
2023-05-21T21:50:12.847Z,517.90
2023-05-21T21:51:13.238Z,525.70
2023-05-21T21:52:12.746Z,507.40
2023-05-21T21:53:13.011Z,505.00
2023-05-21T21:54:13.075Z,499.20
2023-05-21T21:55:12.923Z,484.40
2023-05-21T21:56:12.634Z,581.60
2023-05-21T21:57:12.718Z,654.80
2023-05-21T21:58:12.660Z,643.40
2023-05-21T21:59:12.775Z,671.10
2023-05-21T22:00:13.024Z,764.10
2023-05-21T22:01:12.613Z,856.90
2023-05-21T22:02:12.735Z,827.40
2023-05-21T22:03:14.609Z,826.50
2023-05-21T22:04:12.535Z,801.60
2023-05-21T22:05:12.527Z,931.60
2023-05-21T22:06:12.601Z,893.20
2023-05-21T22:07:12.509Z,841.40
2023-05-21T22:08:12.548Z,817.60
2023-05-21T22:09:12.561Z,708.00
2023-05-21T22:10:13.028Z,855.90
2023-05-21T22:11:12.664Z,931.20
2023-05-21T22:12:12.516Z,950.90
2023-05-21T22:13:12.680Z,933.60
2023-05-21T22:14:12.484Z,918.80
2023-05-21T22:15:12.658Z,956.20
2023-05-21T22:16:12.721Z,916.20
2023-05-21T22:17:12.613Z,837.90
2023-05-21T22:18:12.590Z,774.50
2023-05-21T22:19:12.485Z,714.00
2023-05-21T22:20:12.521Z,823.70
2023-05-21T22:21:12.584Z,757.10
2023-05-21T22:22:12.700Z,935.80
2023-05-21T22:23:12.526Z,955.00
2023-05-21T22:24:24.124Z,952.90
2023-05-21T22:25:14.406Z,956.70
2023-05-21T22:26:12.804Z,875.70
2023-05-21T22:27:12.525Z,787.50
2023-05-21T22:28:12.476Z,559.90
2023-05-21T22:29:12.477Z,595.40
2023-05-21T22:30:12.380Z,583.80
2023-05-21T22:31:12.437Z,504.30
2023-05-21T22:32:12.520Z,615.50
2023-05-21T22:33:12.447Z,642.10
2023-05-21T22:34:12.596Z,576.40
2023-05-21T22:35:12.270Z,524.80
2023-05-21T22:36:12.272Z,537.00
2023-05-21T22:37:12.294Z,551.00
2023-05-21T22:38:12.240Z,612.40
2023-05-21T22:39:12.255Z,607.30
2023-05-21T22:40:13.082Z,552.30
2023-05-21T22:41:13.309Z,581.50
2023-05-21T22:42:12.273Z,455.60
2023-05-21T22:43:12.250Z,466.70
2023-05-21T22:44:12.316Z,552.80
2023-05-21T22:45:12.262Z,514.20
2023-05-21T22:46:12.654Z,634.10
2023-05-21T22:47:12.256Z,510.60
2023-05-21T22:48:12.437Z,455.60
2023-05-21T22:49:12.255Z,465.00
2023-05-21T22:50:12.203Z,605.20
2023-05-21T22:51:12.213Z,533.30
2023-05-21T22:52:12.269Z,495.50
2023-05-21T22:53:12.274Z,490.40
2023-05-21T22:54:12.227Z,536.90
2023-05-21T22:55:12.209Z,591.90
2023-05-21T22:56:12.255Z,515.90
2023-05-21T22:57:12.515Z,529.70
2023-05-21T22:58:12.247Z,525.70
2023-05-21T22:59:12.210Z,524.70
2023-05-21T23:00:12.182Z,512.90
2023-05-21T23:01:12.186Z,495.30
2023-05-21T23:02:12.305Z,531.90
2023-05-21T23:03:12.215Z,578.90
2023-05-21T23:04:12.144Z,633.80
2023-05-21T23:05:12.251Z,596.20
2023-05-21T23:06:12.207Z,504.20
2023-05-21T23:07:12.172Z,519.80
2023-05-21T23:08:12.381Z,511.50
2023-05-21T23:09:12.076Z,523.20
2023-05-21T23:10:11.983Z,567.20
2023-05-21T23:11:12.000Z,562.30
2023-05-21T23:12:11.982Z,530.60
2023-05-21T23:13:12.077Z,539.30
2023-05-21T23:14:11.986Z,523.80
2023-05-21T23:15:11.935Z,501.70
2023-05-21T23:16:12.098Z,503.90
2023-05-21T23:17:12.023Z,460.10
2023-05-21T23:18:12.071Z,528.50
2023-05-21T23:19:12.150Z,558.40
2023-05-21T23:20:12.008Z,521.80
2023-05-21T23:21:12.267Z,567.00
2023-05-21T23:22:11.953Z,638.90
2023-05-21T23:23:11.988Z,656.90
2023-05-21T23:24:11.998Z,604.70
2023-05-21T23:25:11.967Z,658.10
2023-05-21T23:26:12.014Z,515.40
2023-05-21T23:27:11.948Z,482.80